sensor_id;sensor_type;location;lat;lon;timestamp;P1;durP1;ratioP1;P2;durP2;ratioP2
12480;SDS011;6305;48.398;11.762;2023-08-21T00:01:39;12.40;;;10.05;;
12480;SDS011;6305;48.398;11.762;2023-08-21T00:04:06;11.30;;;9.95;;
12480;SDS011;6305;48.398;11.762;2023-08-21T00:06:33;11.23;;;9.48;;
12480;SDS011;6305;48.398;11.762;2023-08-21T00:09:00;11.18;;;9.98;;
12480;SDS011;6305;48.398;11.762;2023-08-21T00:11:28;11.65;;;10.00;;
12480;SDS011;6305;48.398;11.762;2023-08-21T00:13:55;11.55;;;10.02;;
12480;SDS011;6305;48.398;11.762;2023-08-21T00:16:23;10.57;;;9.50;;
12480;SDS011;6305;48.398;11.762;2023-08-21T00:18:51;11.90;;;9.80;;
12480;SDS011;6305;48.398;11.762;2023-08-21T00:21:18;14.65;;;10.65;;
12480;SDS011;6305;48.398;11.762;2023-08-21T00:23:46;11.55;;;10.00;;
12480;SDS011;6305;48.398;11.762;2023-08-21T00:26:13;12.75;;;10.63;;
12480;SDS011;6305;48.398;11.762;2023-08-21T00:28:40;16.42;;;10.90;;
12480;SDS011;6305;48.398;11.762;2023-08-21T00:31:07;13.38;;;10.82;;
12480;SDS011;6305;48.398;11.762;2023-08-21T00:33:35;14.35;;;10.13;;
12480;SDS011;6305;48.398;11.762;2023-08-21T00:36:03;11.90;;;9.95;;
12480;SDS011;6305;48.398;11.762;2023-08-21T00:38:30;12.77;;;11.35;;
12480;SDS011;6305;48.398;11.762;2023-08-21T00:40:58;13.98;;;11.02;;
12480;SDS011;6305;48.398;11.762;2023-08-21T00:43:25;12.40;;;10.18;;
12480;SDS011;6305;48.398;11.762;2023-08-21T00:45:52;12.10;;;10.10;;
12480;SDS011;6305;48.398;11.762;2023-08-21T00:48:19;13.00;;;10.90;;
12480;SDS011;6305;48.398;11.762;2023-08-21T00:50:47;12.90;;;11.60;;
12480;SDS011;6305;48.398;11.762;2023-08-21T00:53:15;11.77;;;10.20;;
12480;SDS011;6305;48.398;11.762;2023-08-21T00:55:43;14.77;;;10.95;;
12480;SDS011;6305;48.398;11.762;2023-08-21T00:58:10;13.82;;;10.35;;
12480;SDS011;6305;48.398;11.762;2023-08-21T01:00:38;12.35;;;11.05;;
12480;SDS011;6305;48.398;11.762;2023-08-21T01:03:06;12.13;;;10.82;;
12480;SDS011;6305;48.398;11.762;2023-08-21T01:05:34;12.27;;;10.93;;
12480;SDS011;6305;48.398;11.762;2023-08-21T01:08:03;12.52;;;10.35;;
12480;SDS011;6305;48.398;11.762;2023-08-21T01:10:39;12.52;;;11.23;;
12480;SDS011;6305;48.398;11.762;2023-08-21T01:13:12;14.43;;;10.75;;
12480;SDS011;6305;48.398;11.762;2023-08-21T01:15:47;12.93;;;10.73;;
12480;SDS011;6305;48.398;11.762;2023-08-21T01:18:18;12.35;;;11.05;;
12480;SDS011;6305;48.398;11.762;2023-08-21T01:20:49;12.02;;;10.82;;
12480;SDS011;6305;48.398;11.762;2023-08-21T01:23:29;12.57;;;10.57;;
12480;SDS011;6305;48.398;11.762;2023-08-21T01:26:00;13.90;;;10.98;;
12480;SDS011;6305;48.398;11.762;2023-08-21T01:28:29;12.38;;;10.77;;
12480;SDS011;6305;48.398;11.762;2023-08-21T01:30:59;12.68;;;10.85;;
12480;SDS011;6305;48.398;11.762;2023-08-21T01:33:30;11.43;;;10.25;;
12480;SDS011;6305;48.398;11.762;2023-08-21T01:36:02;14.93;;;10.95;;
12480;SDS011;6305;48.398;11.762;2023-08-21T01:38:32;12.82;;;11.05;;
12480;SDS011;6305;48.398;11.762;2023-08-21T01:41:00;13.18;;;10.93;;
12480;SDS011;6305;48.398;11.762;2023-08-21T01:43:28;13.32;;;10.25;;
12480;SDS011;6305;48.398;11.762;2023-08-21T01:45:55;12.40;;;10.48;;
12480;SDS011;6305;48.398;11.762;2023-08-21T01:48:22;13.13;;;10.65;;
12480;SDS011;6305;48.398;11.762;2023-08-21T01:50:49;12.50;;;10.48;;
12480;SDS011;6305;48.398;11.762;2023-08-21T01:53:16;11.88;;;10.60;;
12480;SDS011;6305;48.398;11.762;2023-08-21T01:55:44;13.07;;;10.98;;
12480;SDS011;6305;48.398;11.762;2023-08-21T01:58:11;12.88;;;11.27;;
12480;SDS011;6305;48.398;11.762;2023-08-21T02:00:38;13.32;;;11.38;;
12480;SDS011;6305;48.398;11.762;2023-08-21T02:03:05;15.90;;;11.30;;
12480;SDS011;6305;48.398;11.762;2023-08-21T02:05:36;13.00;;;11.70;;
12480;SDS011;6305;48.398;11.762;2023-08-21T02:08:05;12.98;;;11.57;;
12480;SDS011;6305;48.398;11.762;2023-08-21T02:10:34;13.57;;;11.73;;
12480;SDS011;6305;48.398;11.762;2023-08-21T02:13:02;14.40;;;12.00;;
12480;SDS011;6305;48.398;11.762;2023-08-21T02:15:30;16.50;;;12.38;;
12480;SDS011;6305;48.398;11.762;2023-08-21T02:17:57;14.40;;;12.15;;
12480;SDS011;6305;48.398;11.762;2023-08-21T02:20:24;16.23;;;13.07;;
12480;SDS011;6305;48.398;11.762;2023-08-21T02:22:51;13.23;;;11.80;;
12480;SDS011;6305;48.398;11.762;2023-08-21T02:25:18;14.85;;;12.13;;
12480;SDS011;6305;48.398;11.762;2023-08-21T02:27:46;14.88;;;12.52;;
12480;SDS011;6305;48.398;11.762;2023-08-21T02:30:15;17.05;;;13.10;;
12480;SDS011;6305;48.398;11.762;2023-08-21T02:32:43;14.65;;;12.35;;
12480;SDS011;6305;48.398;11.762;2023-08-21T02:35:10;14.75;;;12.68;;
12480;SDS011;6305;48.398;11.762;2023-08-21T02:37:37;14.57;;;12.50;;
12480;SDS011;6305;48.398;11.762;2023-08-21T02:40:05;16.73;;;13.20;;
12480;SDS011;6305;48.398;11.762;2023-08-21T02:42:34;17.23;;;12.95;;
12480;SDS011;6305;48.398;11.762;2023-08-21T02:45:02;16.45;;;13.60;;
12480;SDS011;6305;48.398;11.762;2023-08-21T02:47:35;18.02;;;13.73;;
12480;SDS011;6305;48.398;11.762;2023-08-21T02:50:03;17.33;;;13.50;;
12480;SDS011;6305;48.398;11.762;2023-08-21T02:52:30;18.50;;;13.38;;
12480;SDS011;6305;48.398;11.762;2023-08-21T02:54:58;14.73;;;13.15;;
12480;SDS011;6305;48.398;11.762;2023-08-21T02:57:25;17.63;;;13.95;;
12480;SDS011;6305;48.398;11.762;2023-08-21T02:59:52;15.95;;;13.13;;
12480;SDS011;6305;48.398;11.762;2023-08-21T03:02:20;16.15;;;13.38;;
12480;SDS011;6305;48.398;11.762;2023-08-21T03:04:48;16.75;;;14.15;;
12480;SDS011;6305;48.398;11.762;2023-08-21T03:07:16;18.38;;;13.85;;
12480;SDS011;6305;48.398;11.762;2023-08-21T03:09:44;15.35;;;13.20;;
12480;SDS011;6305;48.398;11.762;2023-08-21T03:12:12;18.65;;;14.32;;
12480;SDS011;6305;48.398;11.762;2023-08-21T03:14:39;16.95;;;14.60;;
12480;SDS011;6305;48.398;11.762;2023-08-21T03:17:06;18.58;;;14.82;;
12480;SDS011;6305;48.398;11.762;2023-08-21T03:19:33;18.73;;;14.57;;
12480;SDS011;6305;48.398;11.762;2023-08-21T03:22:02;19.85;;;14.55;;
12480;SDS011;6305;48.398;11.762;2023-08-21T03:24:30;20.70;;;14.63;;
12480;SDS011;6305;48.398;11.762;2023-08-21T03:26:57;21.30;;;14.77;;
12480;SDS011;6305;48.398;11.762;2023-08-21T03:29:24;18.10;;;14.63;;
12480;SDS011;6305;48.398;11.762;2023-08-21T03:31:52;19.17;;;14.88;;
12480;SDS011;6305;48.398;11.762;2023-08-21T03:34:19;17.95;;;15.10;;
12480;SDS011;6305;48.398;11.762;2023-08-21T03:36:48;18.50;;;16.25;;
12480;SDS011;6305;48.398;11.762;2023-08-21T03:39:17;20.45;;;14.60;;
12480;SDS011;6305;48.398;11.762;2023-08-21T03:41:46;19.40;;;15.30;;
12480;SDS011;6305;48.398;11.762;2023-08-21T03:44:14;18.08;;;14.93;;
12480;SDS011;6305;48.398;11.762;2023-08-21T03:46:42;19.33;;;15.35;;
12480;SDS011;6305;48.398;11.762;2023-08-21T03:49:09;17.25;;;14.55;;
12480;SDS011;6305;48.398;11.762;2023-08-21T03:51:36;19.70;;;15.63;;
12480;SDS011;6305;48.398;11.762;2023-08-21T03:54:02;17.58;;;14.45;;
12480;SDS011;6305;48.398;11.762;2023-08-21T03:56:31;18.90;;;15.10;;
12480;SDS011;6305;48.398;11.762;2023-08-21T03:58:58;20.35;;;15.68;;
12480;SDS011;6305;48.398;11.762;2023-08-21T04:01:25;19.50;;;15.25;;
12480;SDS011;6305;48.398;11.762;2023-08-21T04:03:52;20.25;;;15.38;;
12480;SDS011;6305;48.398;11.762;2023-08-21T04:06:19;19.67;;;15.52;;
12480;SDS011;6305;48.398;11.762;2023-08-21T04:08:47;24.00;;;16.33;;
12480;SDS011;6305;48.398;11.762;2023-08-21T04:11:14;21.20;;;16.15;;
12480;SDS011;6305;48.398;11.762;2023-08-21T04:13:43;21.13;;;15.35;;
12480;SDS011;6305;48.398;11.762;2023-08-21T04:16:10;20.13;;;16.25;;
12480;SDS011;6305;48.398;11.762;2023-08-21T04:18:37;24.52;;;17.40;;
12480;SDS011;6305;48.398;11.762;2023-08-21T04:21:04;20.90;;;16.15;;
12480;SDS011;6305;48.398;11.762;2023-08-21T04:23:31;20.73;;;15.93;;
12480;SDS011;6305;48.398;11.762;2023-08-21T04:26:01;20.35;;;16.05;;
12480;SDS011;6305;48.398;11.762;2023-08-21T04:28:29;20.38;;;15.68;;
12480;SDS011;6305;48.398;11.762;2023-08-21T04:30:58;19.48;;;15.90;;
12480;SDS011;6305;48.398;11.762;2023-08-21T04:33:27;19.02;;;15.65;;
12480;SDS011;6305;48.398;11.762;2023-08-21T04:35:55;21.75;;;16.02;;
12480;SDS011;6305;48.398;11.762;2023-08-21T04:38:22;20.17;;;15.77;;
12480;SDS011;6305;48.398;11.762;2023-08-21T04:40:49;21.17;;;15.30;;
12480;SDS011;6305;48.398;11.762;2023-08-21T04:43:17;18.52;;;15.40;;
12480;SDS011;6305;48.398;11.762;2023-08-21T04:45:47;19.42;;;15.70;;
12480;SDS011;6305;48.398;11.762;2023-08-21T04:48:16;20.25;;;15.20;;
12480;SDS011;6305;48.398;11.762;2023-08-21T04:50:46;19.45;;;14.90;;
12480;SDS011;6305;48.398;11.762;2023-08-21T04:53:14;19.80;;;15.15;;
12480;SDS011;6305;48.398;11.762;2023-08-21T04:55:41;20.75;;;14.88;;
12480;SDS011;6305;48.398;11.762;2023-08-21T04:58:09;17.38;;;14.43;;
12480;SDS011;6305;48.398;11.762;2023-08-21T05:00:36;17.80;;;13.88;;
12480;SDS011;6305;48.398;11.762;2023-08-21T05:03:03;15.63;;;13.45;;
12480;SDS011;6305;48.398;11.762;2023-08-21T05:05:36;15.73;;;12.55;;
12480;SDS011;6305;48.398;11.762;2023-08-21T05:08:03;15.10;;;12.77;;
12480;SDS011;6305;48.398;11.762;2023-08-21T05:10:32;14.68;;;11.50;;
12480;SDS011;6305;48.398;11.762;2023-08-21T05:12:59;15.35;;;12.27;;
12480;SDS011;6305;48.398;11.762;2023-08-21T05:15:26;11.95;;;10.70;;
12480;SDS011;6305;48.398;11.762;2023-08-21T05:17:53;15.15;;;11.27;;
12480;SDS011;6305;48.398;11.762;2023-08-21T05:20:21;12.77;;;10.13;;
12480;SDS011;6305;48.398;11.762;2023-08-21T05:22:50;13.43;;;10.43;;
12480;SDS011;6305;48.398;11.762;2023-08-21T05:25:17;13.13;;;10.23;;
12480;SDS011;6305;48.398;11.762;2023-08-21T05:27:46;11.73;;;10.32;;
12480;SDS011;6305;48.398;11.762;2023-08-21T05:30:13;11.20;;;10.00;;
12480;SDS011;6305;48.398;11.762;2023-08-21T05:32:40;11.77;;;10.57;;
12480;SDS011;6305;48.398;11.762;2023-08-21T05:35:07;11.93;;;10.68;;
12480;SDS011;6305;48.398;11.762;2023-08-21T05:37:34;12.73;;;9.95;;
12480;SDS011;6305;48.398;11.762;2023-08-21T05:40:04;12.10;;;10.00;;
12480;SDS011;6305;48.398;11.762;2023-08-21T05:42:33;13.93;;;11.45;;
12480;SDS011;6305;48.398;11.762;2023-08-21T05:45:00;13.15;;;11.65;;
12480;SDS011;6305;48.398;11.762;2023-08-21T05:47:30;12.82;;;11.48;;
12480;SDS011;6305;48.398;11.762;2023-08-21T05:49:57;13.70;;;11.77;;
12480;SDS011;6305;48.398;11.762;2023-08-21T05:52:24;13.55;;;12.15;;
12480;SDS011;6305;48.398;11.762;2023-08-21T05:54:51;14.57;;;12.27;;
12480;SDS011;6305;48.398;11.762;2023-08-21T05:57:19;12.65;;;11.35;;
12480;SDS011;6305;48.398;11.762;2023-08-21T05:59:46;14.18;;;12.65;;
12480;SDS011;6305;48.398;11.762;2023-08-21T06:02:13;12.63;;;11.40;;
12480;SDS011;6305;48.398;11.762;2023-08-21T06:04:41;14.07;;;11.77;;
12480;SDS011;6305;48.398;11.762;2023-08-21T06:07:09;14.32;;;11.52;;
12480;SDS011;6305;48.398;11.762;2023-08-21T06:09:37;14.00;;;11.02;;
12480;SDS011;6305;48.398;11.762;2023-08-21T06:12:04;16.00;;;11.85;;
12480;SDS011;6305;48.398;11.762;2023-08-21T06:14:33;12.95;;;11.48;;
12480;SDS011;6305;48.398;11.762;2023-08-21T06:17:02;12.27;;;11.07;;
12480;SDS011;6305;48.398;11.762;2023-08-21T06:19:30;10.70;;;9.70;;
12480;SDS011;6305;48.398;11.762;2023-08-21T06:21:57;11.32;;;9.80;;
12480;SDS011;6305;48.398;11.762;2023-08-21T06:24:25;10.95;;;9.70;;
12480;SDS011;6305;48.398;11.762;2023-08-21T06:26:57;10.30;;;9.25;;
12480;SDS011;6305;48.398;11.762;2023-08-21T06:29:24;11.63;;;9.98;;
12480;SDS011;6305;48.398;11.762;2023-08-21T06:31:52;10.43;;;9.43;;
12480;SDS011;6305;48.398;11.762;2023-08-21T06:34:21;10.32;;;9.43;;
12480;SDS011;6305;48.398;11.762;2023-08-21T06:36:47;11.05;;;9.82;;
12480;SDS011;6305;48.398;11.762;2023-08-21T06:39:15;10.70;;;9.68;;
12480;SDS011;6305;48.398;11.762;2023-08-21T06:41:43;12.05;;;10.23;;
12480;SDS011;6305;48.398;11.762;2023-08-21T06:44:15;10.15;;;9.25;;
12480;SDS011;6305;48.398;11.762;2023-08-21T06:46:42;10.85;;;9.85;;
12480;SDS011;6305;48.398;11.762;2023-08-21T06:49:11;10.50;;;9.15;;
12480;SDS011;6305;48.398;11.762;2023-08-21T06:51:38;10.32;;;9.32;;
12480;SDS011;6305;48.398;11.762;2023-08-21T06:54:05;10.60;;;9.70;;
12480;SDS011;6305;48.398;11.762;2023-08-21T06:56:32;10.18;;;9.18;;
12480;SDS011;6305;48.398;11.762;2023-08-21T06:58:59;9.82;;;9.02;;
12480;SDS011;6305;48.398;11.762;2023-08-21T07:01:27;11.10;;;9.73;;
12480;SDS011;6305;48.398;11.762;2023-08-21T07:03:54;10.77;;;9.68;;
12480;SDS011;6305;48.398;11.762;2023-08-21T07:06:22;10.30;;;9.30;;
12480;SDS011;6305;48.398;11.762;2023-08-21T07:08:49;10.45;;;9.55;;
12480;SDS011;6305;48.398;11.762;2023-08-21T07:11:16;10.20;;;9.10;;
12480;SDS011;6305;48.398;11.762;2023-08-21T07:13:43;10.75;;;9.65;;
12480;SDS011;6305;48.398;11.762;2023-08-21T07:16:10;10.75;;;9.45;;
12480;SDS011;6305;48.398;11.762;2023-08-21T07:18:38;10.27;;;9.32;;
12480;SDS011;6305;48.398;11.762;2023-08-21T07:21:05;10.68;;;9.68;;
12480;SDS011;6305;48.398;11.762;2023-08-21T07:23:33;9.73;;;8.70;;
12480;SDS011;6305;48.398;11.762;2023-08-21T07:26:00;9.85;;;8.90;;
12480;SDS011;6305;48.398;11.762;2023-08-21T07:28:29;9.95;;;8.95;;
12480;SDS011;6305;48.398;11.762;2023-08-21T07:30:56;9.35;;;8.55;;
12480;SDS011;6305;48.398;11.762;2023-08-21T07:33:23;9.18;;;8.30;;
12480;SDS011;6305;48.398;11.762;2023-08-21T07:35:56;9.98;;;8.98;;
12480;SDS011;6305;48.398;11.762;2023-08-21T07:38:23;10.38;;;9.50;;
12480;SDS011;6305;48.398;11.762;2023-08-21T07:41:01;9.70;;;8.73;;
12480;SDS011;6305;48.398;11.762;2023-08-21T07:43:29;10.10;;;9.20;;
12480;SDS011;6305;48.398;11.762;2023-08-21T07:45:56;10.32;;;8.52;;
12480;SDS011;6305;48.398;11.762;2023-08-21T07:48:23;9.57;;;8.70;;
12480;SDS011;6305;48.398;11.762;2023-08-21T07:50:51;9.10;;;8.30;;
12480;SDS011;6305;48.398;11.762;2023-08-21T07:53:18;8.90;;;8.10;;
12480;SDS011;6305;48.398;11.762;2023-08-21T07:55:45;9.70;;;8.23;;
12480;SDS011;6305;48.398;11.762;2023-08-21T07:58:13;9.13;;;8.32;;
12480;SDS011;6305;48.398;11.762;2023-08-21T08:00:40;9.07;;;8.32;;
12480;SDS011;6305;48.398;11.762;2023-08-21T08:03:07;9.15;;;8.35;;
12480;SDS011;6305;48.398;11.762;2023-08-21T08:05:35;7.93;;;7.22;;
12480;SDS011;6305;48.398;11.762;2023-08-21T08:08:02;7.60;;;7.00;;
12480;SDS011;6305;48.398;11.762;2023-08-21T08:10:30;7.78;;;7.10;;
12480;SDS011;6305;48.398;11.762;2023-08-21T08:12:57;8.57;;;7.88;;
12480;SDS011;6305;48.398;11.762;2023-08-21T08:15:25;8.18;;;7.47;;
12480;SDS011;6305;48.398;11.762;2023-08-21T08:17:53;7.40;;;6.70;;
12480;SDS011;6305;48.398;11.762;2023-08-21T08:20:20;8.00;;;7.25;;
12480;SDS011;6305;48.398;11.762;2023-08-21T08:22:47;8.05;;;7.25;;
12480;SDS011;6305;48.398;11.762;2023-08-21T08:25:14;7.85;;;7.03;;
12480;SDS011;6305;48.398;11.762;2023-08-21T08:27:42;8.15;;;7.40;;
12480;SDS011;6305;48.398;11.762;2023-08-21T08:30:10;8.02;;;7.22;;
12480;SDS011;6305;48.398;11.762;2023-08-21T08:32:39;7.93;;;7.25;;
12480;SDS011;6305;48.398;11.762;2023-08-21T08:35:10;7.50;;;6.88;;
12480;SDS011;6305;48.398;11.762;2023-08-21T08:37:37;7.88;;;7.00;;
12480;SDS011;6305;48.398;11.762;2023-08-21T08:40:04;7.35;;;6.75;;
12480;SDS011;6305;48.398;11.762;2023-08-21T08:42:33;8.15;;;7.38;;
12480;SDS011;6305;48.398;11.762;2023-08-21T08:45:02;7.70;;;7.00;;
12480;SDS011;6305;48.398;11.762;2023-08-21T08:47:31;7.65;;;6.95;;
12480;SDS011;6305;48.398;11.762;2023-08-21T08:50:02;6.68;;;6.07;;
12480;SDS011;6305;48.398;11.762;2023-08-21T08:52:31;6.93;;;6.32;;
12480;SDS011;6305;48.398;11.762;2023-08-21T08:55:01;7.45;;;6.75;;
12480;SDS011;6305;48.398;11.762;2023-08-21T08:57:29;7.28;;;6.68;;
12480;SDS011;6305;48.398;11.762;2023-08-21T08:59:57;7.55;;;6.95;;
12480;SDS011;6305;48.398;11.762;2023-08-21T09:02:24;7.20;;;6.60;;
12480;SDS011;6305;48.398;11.762;2023-08-21T09:04:52;7.20;;;6.60;;
12480;SDS011;6305;48.398;11.762;2023-08-21T09:07:20;7.45;;;6.80;;
12480;SDS011;6305;48.398;11.762;2023-08-21T09:09:48;7.72;;;7.00;;
12480;SDS011;6305;48.398;11.762;2023-08-21T09:12:18;7.25;;;6.57;;
12480;SDS011;6305;48.398;11.762;2023-08-21T09:14:46;6.90;;;6.40;;
12480;SDS011;6305;48.398;11.762;2023-08-21T09:17:13;6.88;;;6.28;;
12480;SDS011;6305;48.398;11.762;2023-08-21T09:19:41;6.97;;;6.38;;
12480;SDS011;6305;48.398;11.762;2023-08-21T09:22:09;7.20;;;6.50;;
12480;SDS011;6305;48.398;11.762;2023-08-21T09:24:39;8.05;;;7.25;;
12480;SDS011;6305;48.398;11.762;2023-08-21T09:27:13;6.97;;;6.30;;
12480;SDS011;6305;48.398;11.762;2023-08-21T09:29:42;7.22;;;6.60;;
12480;SDS011;6305;48.398;11.762;2023-08-21T09:32:09;7.10;;;6.40;;
12480;SDS011;6305;48.398;11.762;2023-08-21T09:34:36;7.72;;;6.90;;
12480;SDS011;6305;48.398;11.762;2023-08-21T09:37:07;7.32;;;6.72;;
12480;SDS011;6305;48.398;11.762;2023-08-21T09:39:36;8.65;;;6.82;;
12480;SDS011;6305;48.398;11.762;2023-08-21T09:42:06;6.70;;;6.20;;
12480;SDS011;6305;48.398;11.762;2023-08-21T09:44:37;7.43;;;6.70;;
12480;SDS011;6305;48.398;11.762;2023-08-21T09:47:07;7.88;;;7.10;;
12480;SDS011;6305;48.398;11.762;2023-08-21T09:49:36;7.75;;;6.97;;
12480;SDS011;6305;48.398;11.762;2023-08-21T09:52:05;8.40;;;6.80;;
12480;SDS011;6305;48.398;11.762;2023-08-21T09:54:51;6.35;;;5.85;;
12480;SDS011;6305;48.398;11.762;2023-08-21T09:57:21;6.78;;;6.18;;
12480;SDS011;6305;48.398;11.762;2023-08-21T09:59:50;6.00;;;5.60;;
12480;SDS011;6305;48.398;11.762;2023-08-21T10:02:19;7.15;;;6.53;;
12480;SDS011;6305;48.398;11.762;2023-08-21T10:04:47;5.95;;;5.45;;
12480;SDS011;6305;48.398;11.762;2023-08-21T10:07:16;5.53;;;5.05;;
12480;SDS011;6305;48.398;11.762;2023-08-21T10:09:47;5.78;;;5.25;;
12480;SDS011;6305;48.398;11.762;2023-08-21T10:12:14;5.53;;;4.90;;
12480;SDS011;6305;48.398;11.762;2023-08-21T10:14:45;5.63;;;5.03;;
12480;SDS011;6305;48.398;11.762;2023-08-21T10:17:12;5.55;;;5.15;;
12480;SDS011;6305;48.398;11.762;2023-08-21T10:19:40;5.47;;;5.07;;
12480;SDS011;6305;48.398;11.762;2023-08-21T10:22:07;5.63;;;5.22;;
12480;SDS011;6305;48.398;11.762;2023-08-21T10:24:34;6.65;;;5.60;;
12480;SDS011;6305;48.398;11.762;2023-08-21T10:27:03;5.43;;;4.93;;
12480;SDS011;6305;48.398;11.762;2023-08-21T10:29:30;5.35;;;4.85;;
12480;SDS011;6305;48.398;11.762;2023-08-21T10:32:01;5.72;;;5.10;;
12480;SDS011;6305;48.398;11.762;2023-08-21T10:34:33;6.00;;;5.60;;
12480;SDS011;6305;48.398;11.762;2023-08-21T10:37:03;6.10;;;5.60;;
12480;SDS011;6305;48.398;11.762;2023-08-21T10:39:33;5.47;;;5.07;;
12480;SDS011;6305;48.398;11.762;2023-08-21T10:42:04;5.90;;;5.32;;
12480;SDS011;6305;48.398;11.762;2023-08-21T10:47:22;6.13;;;5.45;;
12480;SDS011;6305;48.398;11.762;2023-08-21T10:49:57;5.97;;;5.47;;
12480;SDS011;6305;48.398;11.762;2023-08-21T10:52:25;5.82;;;5.43;;
12480;SDS011;6305;48.398;11.762;2023-08-21T10:54:54;8.00;;;5.78;;
12480;SDS011;6305;48.398;11.762;2023-08-21T10:57:23;6.20;;;5.70;;
12480;SDS011;6305;48.398;11.762;2023-08-21T10:59:51;5.88;;;5.47;;
12480;SDS011;6305;48.398;11.762;2023-08-21T11:02:20;6.10;;;5.50;;
12480;SDS011;6305;48.398;11.762;2023-08-21T11:04:49;6.47;;;5.88;;
12480;SDS011;6305;48.398;11.762;2023-08-21T11:07:16;6.95;;;5.93;;
12480;SDS011;6305;48.398;11.762;2023-08-21T11:09:44;6.38;;;5.88;;
12480;SDS011;6305;48.398;11.762;2023-08-21T11:12:12;5.82;;;5.43;;
12480;SDS011;6305;48.398;11.762;2023-08-21T11:14:41;5.95;;;5.35;;
12480;SDS011;6305;48.398;11.762;2023-08-21T11:17:09;6.28;;;5.68;;
12480;SDS011;6305;48.398;11.762;2023-08-21T11:19:37;5.60;;;5.20;;
12480;SDS011;6305;48.398;11.762;2023-08-21T11:22:06;5.65;;;5.18;;
12480;SDS011;6305;48.398;11.762;2023-08-21T11:24:39;5.65;;;5.13;;
12480;SDS011;6305;48.398;11.762;2023-08-21T11:27:08;5.43;;;4.97;;
12480;SDS011;6305;48.398;11.762;2023-08-21T11:29:37;5.20;;;4.78;;
12480;SDS011;6305;48.398;11.762;2023-08-21T11:32:12;4.90;;;4.50;;
12480;SDS011;6305;48.398;11.762;2023-08-21T11:34:40;5.45;;;4.95;;
12480;SDS011;6305;48.398;11.762;2023-08-21T11:37:09;5.75;;;5.25;;
12480;SDS011;6305;48.398;11.762;2023-08-21T11:39:40;5.43;;;5.03;;
12480;SDS011;6305;48.398;11.762;2023-08-21T11:42:09;5.55;;;5.07;;
12480;SDS011;6305;48.398;11.762;2023-08-21T11:44:44;5.03;;;4.53;;
12480;SDS011;6305;48.398;11.762;2023-08-21T11:47:12;5.40;;;5.00;;
12480;SDS011;6305;48.398;11.762;2023-08-21T11:49:40;5.50;;;5.00;;
12480;SDS011;6305;48.398;11.762;2023-08-21T11:52:10;5.68;;;5.18;;
12480;SDS011;6305;48.398;11.762;2023-08-21T11:54:38;7.05;;;5.32;;
12480;SDS011;6305;48.398;11.762;2023-08-21T11:57:07;5.45;;;5.00;;
12480;SDS011;6305;48.398;11.762;2023-08-21T11:59:35;6.10;;;5.55;;
12480;SDS011;6305;48.398;11.762;2023-08-21T12:02:13;4.93;;;4.53;;
12480;SDS011;6305;48.398;11.762;2023-08-21T12:04:44;4.80;;;4.40;;
12480;SDS011;6305;48.398;11.762;2023-08-21T12:07:12;3.85;;;3.63;;
12480;SDS011;6305;48.398;11.762;2023-08-21T12:09:39;4.22;;;3.83;;
12480;SDS011;6305;48.398;11.762;2023-08-21T12:12:12;5.93;;;4.90;;
12480;SDS011;6305;48.398;11.762;2023-08-21T12:14:39;5.65;;;5.13;;
12480;SDS011;6305;48.398;11.762;2023-08-21T12:17:06;4.53;;;4.22;;
12480;SDS011;6305;48.398;11.762;2023-08-21T12:19:33;5.03;;;4.63;;
12480;SDS011;6305;48.398;11.762;2023-08-21T12:22:00;5.45;;;4.97;;
12480;SDS011;6305;48.398;11.762;2023-08-21T12:24:28;4.72;;;4.28;;
12480;SDS011;6305;48.398;11.762;2023-08-21T12:26:56;5.53;;;4.82;;
12480;SDS011;6305;48.398;11.762;2023-08-21T12:29:23;5.10;;;4.63;;
12480;SDS011;6305;48.398;11.762;2023-08-21T12:31:50;4.57;;;4.18;;
12480;SDS011;6305;48.398;11.762;2023-08-21T12:34:17;4.30;;;4.00;;
12480;SDS011;6305;48.398;11.762;2023-08-21T12:36:44;4.60;;;4.20;;
12480;SDS011;6305;48.398;11.762;2023-08-21T12:39:11;4.88;;;4.47;;
12480;SDS011;6305;48.398;11.762;2023-08-21T12:41:40;4.50;;;4.10;;
12480;SDS011;6305;48.398;11.762;2023-08-21T12:44:07;4.40;;;4.03;;
12480;SDS011;6305;48.398;11.762;2023-08-21T12:46:34;4.10;;;3.80;;
12480;SDS011;6305;48.398;11.762;2023-08-21T12:49:01;6.28;;;3.95;;
12480;SDS011;6305;48.398;11.762;2023-08-21T12:51:29;6.72;;;4.07;;
12480;SDS011;6305;48.398;11.762;2023-08-21T12:53:56;4.60;;;4.20;;
12480;SDS011;6305;48.398;11.762;2023-08-21T12:56:23;4.57;;;4.10;;
12480;SDS011;6305;48.398;11.762;2023-08-21T12:58:52;4.63;;;3.85;;
12480;SDS011;6305;48.398;11.762;2023-08-21T13:01:19;4.30;;;3.90;;
12480;SDS011;6305;48.398;11.762;2023-08-21T13:03:47;4.32;;;3.92;;
12480;SDS011;6305;48.398;11.762;2023-08-21T13:06:14;4.40;;;3.90;;
12480;SDS011;6305;48.398;11.762;2023-08-21T13:08:41;3.83;;;3.53;;
12480;SDS011;6305;48.398;11.762;2023-08-21T13:11:08;5.38;;;3.70;;
12480;SDS011;6305;48.398;11.762;2023-08-21T13:13:35;5.13;;;3.88;;
12480;SDS011;6305;48.398;11.762;2023-08-21T13:16:03;4.47;;;4.00;;
12480;SDS011;6305;48.398;11.762;2023-08-21T13:18:31;3.67;;;3.38;;
12480;SDS011;6305;48.398;11.762;2023-08-21T13:20:58;5.40;;;4.15;;
12480;SDS011;6305;48.398;11.762;2023-08-21T13:23:25;4.65;;;3.95;;
12480;SDS011;6305;48.398;11.762;2023-08-21T13:25:54;4.45;;;3.55;;
12480;SDS011;6305;48.398;11.762;2023-08-21T13:28:22;5.38;;;3.58;;
12480;SDS011;6305;48.398;11.762;2023-08-21T13:30:49;6.53;;;4.07;;
12480;SDS011;6305;48.398;11.762;2023-08-21T13:33:17;6.00;;;4.03;;
12480;SDS011;6305;48.398;11.762;2023-08-21T13:35:44;10.27;;;3.53;;
12480;SDS011;6305;48.398;11.762;2023-08-21T13:38:12;3.90;;;3.60;;
12480;SDS011;6305;48.398;11.762;2023-08-21T13:40:39;4.03;;;3.70;;
12480;SDS011;6305;48.398;11.762;2023-08-21T13:43:06;3.92;;;3.58;;
12480;SDS011;6305;48.398;11.762;2023-08-21T13:45:35;4.25;;;3.88;;
12480;SDS011;6305;48.398;11.762;2023-08-21T13:48:02;4.43;;;3.75;;
12480;SDS011;6305;48.398;11.762;2023-08-21T13:50:31;3.97;;;3.38;;
12480;SDS011;6305;48.398;11.762;2023-08-21T13:52:58;4.05;;;3.65;;
12480;SDS011;6305;48.398;11.762;2023-08-21T13:55:26;3.85;;;3.55;;
12480;SDS011;6305;48.398;11.762;2023-08-21T13:57:53;3.80;;;3.45;;
12480;SDS011;6305;48.398;11.762;2023-08-21T14:00:20;3.85;;;3.53;;
12480;SDS011;6305;48.398;11.762;2023-08-21T14:02:47;4.25;;;3.78;;
12480;SDS011;6305;48.398;11.762;2023-08-21T14:05:14;4.20;;;3.80;;
12480;SDS011;6305;48.398;11.762;2023-08-21T14:07:43;4.10;;;3.65;;
12480;SDS011;6305;48.398;11.762;2023-08-21T14:10:10;4.20;;;3.85;;
12480;SDS011;6305;48.398;11.762;2023-08-21T14:12:39;5.57;;;3.75;;
12480;SDS011;6305;48.398;11.762;2023-08-21T14:15:06;4.63;;;3.50;;
12480;SDS011;6305;48.398;11.762;2023-08-21T14:17:33;4.05;;;3.53;;
12480;SDS011;6305;48.398;11.762;2023-08-21T14:20:01;4.38;;;3.85;;
12480;SDS011;6305;48.398;11.762;2023-08-21T14:22:29;5.70;;;4.10;;
12480;SDS011;6305;48.398;11.762;2023-08-21T14:24:58;4.60;;;4.05;;
12480;SDS011;6305;48.398;11.762;2023-08-21T14:27:25;4.80;;;4.30;;
12480;SDS011;6305;48.398;11.762;2023-08-21T14:29:52;6.38;;;4.00;;
12480;SDS011;6305;48.398;11.762;2023-08-21T14:32:19;3.83;;;3.53;;
12480;SDS011;6305;48.398;11.762;2023-08-21T14:34:46;4.03;;;3.63;;
12480;SDS011;6305;48.398;11.762;2023-08-21T14:37:13;4.40;;;4.00;;
12480;SDS011;6305;48.398;11.762;2023-08-21T14:39:41;5.18;;;3.90;;
12480;SDS011;6305;48.398;11.762;2023-08-21T14:42:10;4.78;;;4.10;;
12480;SDS011;6305;48.398;11.762;2023-08-21T14:44:37;4.85;;;4.20;;